createdAt,value
2022-08-05T00:02:18.883Z,20.46
2022-08-05T00:04:55.282Z,20.49
2022-08-05T00:07:59.047Z,20.45
2022-08-05T00:10:11.119Z,20.42
2022-08-05T00:12:55.900Z,20.48
2022-08-05T00:15:55.933Z,20.36
2022-08-05T00:18:21.799Z,20.36
2022-08-05T00:20:51.612Z,20.35
2022-08-05T00:23:44.340Z,20.25
2022-08-05T00:26:08.066Z,20.22
2022-08-05T00:28:40.766Z,20.21
2022-08-05T00:31:13.299Z,20.25
2022-08-05T00:34:55.923Z,20.24
2022-08-05T00:37:11.344Z,20.14
2022-08-05T00:39:37.034Z,20.13
2022-08-05T00:45:01.940Z,19.98
2022-08-05T00:47:53.331Z,19.96
2022-08-05T00:50:17.105Z,19.86
2022-08-05T00:52:45.409Z,19.76
2022-08-05T00:55:20.064Z,19.59
2022-08-05T00:57:55.503Z,19.72
2022-08-05T01:03:24.300Z,19.59
2022-08-05T01:05:59.032Z,19.46
2022-08-05T01:08:42.985Z,19.55
2022-08-05T01:11:22.458Z,19.55
2022-08-05T01:14:04.064Z,19.51
2022-08-05T01:16:46.173Z,19.59
2022-08-05T01:19:56.230Z,19.59
2022-08-05T01:22:50.280Z,19.59
2022-08-05T01:25:57.893Z,19.60
2022-08-05T01:28:27.675Z,19.51
2022-08-05T01:30:59.350Z,19.38
2022-08-05T01:33:35.325Z,19.52
2022-08-05T01:36:13.185Z,19.51
2022-08-05T01:38:55.158Z,19.43
2022-08-05T01:41:25.682Z,19.43
2022-08-05T01:43:54.578Z,19.30
2022-08-05T01:46:41.387Z,19.42
2022-08-05T01:49:23.896Z,19.42
2022-08-05T01:52:19.153Z,19.38
2022-08-05T01:54:56.894Z,19.32
2022-08-05T01:58:11.725Z,19.43
2022-08-05T02:00:49.434Z,19.39
2022-08-05T02:03:31.773Z,19.34
2022-08-05T02:06:03.590Z,19.20
2022-08-05T02:08:54.753Z,19.28
2022-08-05T02:11:42.524Z,19.36
2022-08-05T02:14:32.606Z,19.30
2022-08-05T02:17:07.833Z,19.34
2022-08-05T02:19:49.860Z,19.31
2022-08-05T02:22:27.317Z,19.25
2022-08-05T02:28:28.352Z,19.25
2022-08-05T02:31:34.783Z,19.11
2022-08-05T02:34:11.764Z,19.18
2022-08-05T02:36:58.400Z,19.05
2022-08-05T02:39:29.460Z,19.14
2022-08-05T02:42:01.451Z,19.25
2022-08-05T02:44:31.922Z,19.28
2022-08-05T02:49:51.835Z,19.24
2022-08-05T02:52:29.464Z,19.35
2022-08-05T02:58:22.269Z,19.12
2022-08-05T03:00:53.435Z,19.08
2022-08-05T03:03:23.547Z,19.04
2022-08-05T03:06:55.042Z,19.03
2022-08-05T03:08:42.718Z,18.93
2022-08-05T03:11:57.216Z,18.90
2022-08-05T03:14:20.185Z,19.01
2022-08-05T03:17:12.883Z,18.94
2022-08-05T03:19:41.957Z,18.88
2022-08-05T03:22:39.018Z,18.87
2022-08-05T03:25:33.878Z,18.90
2022-08-05T03:28:14.045Z,18.86
2022-08-05T03:30:44.429Z,18.80
2022-08-05T03:33:42.180Z,18.80
2022-08-05T03:36:17.777Z,18.81
2022-08-05T03:39:08.072Z,18.70
2022-08-05T03:41:45.353Z,18.79
2022-08-05T03:44:19.895Z,18.69
2022-08-05T03:46:48.878Z,18.65
2022-08-05T03:50:08.599Z,18.76
2022-08-05T03:55:33.981Z,18.67
2022-08-05T03:56:34.803Z,18.62
2022-08-05T03:59:07.602Z,18.62
2022-08-05T04:01:42.492Z,18.58
2022-08-05T04:04:21.334Z,18.55
2022-08-05T04:06:51.187Z,18.56
2022-08-05T04:09:20.340Z,18.51
2022-08-05T04:12:04.770Z,18.48
2022-08-05T04:17:56.673Z,18.55
2022-08-05T04:20:24.896Z,18.45
2022-08-05T04:23:16.952Z,18.49
2022-08-05T04:26:09.132Z,18.42
2022-08-05T04:28:51.058Z,18.48
2022-08-05T04:31:45.228Z,18.41
2022-08-05T04:34:32.891Z,18.44
2022-08-05T04:40:19.617Z,18.39
2022-08-05T04:42:46.914Z,18.38
2022-08-05T04:45:48.762Z,18.26
2022-08-05T04:48:27.519Z,18.41
2022-08-05T04:51:01.756Z,18.39
2022-08-05T04:53:42.917Z,18.44
2022-08-05T04:56:34.244Z,18.42
2022-08-05T04:59:39.261Z,18.42
2022-08-05T05:02:36.893Z,18.38
2022-08-05T05:05:01.806Z,18.36
2022-08-05T05:07:32.591Z,18.35
2022-08-05T05:10:06.373Z,18.44
2022-08-05T05:12:36.592Z,18.38
2022-08-05T05:15:06.091Z,18.38
2022-08-05T05:17:55.797Z,18.41
2022-08-05T05:20:28.159Z,18.45
2022-08-05T05:23:08.428Z,18.44
2022-08-05T05:31:58.575Z,18.51
2022-08-05T05:34:32.007Z,18.47
2022-08-05T05:39:50.990Z,18.51
2022-08-05T05:45:38.902Z,18.41
2022-08-05T05:48:16.912Z,18.51
2022-08-05T05:50:44.901Z,18.51
2022-08-05T05:53:22.049Z,18.60
2022-08-05T05:56:00.896Z,18.58
2022-08-05T06:01:23.339Z,18.66
2022-08-05T06:04:01.256Z,18.63
2022-08-05T06:06:36.011Z,18.62
2022-08-05T06:09:07.678Z,18.56
2022-08-05T06:11:35.210Z,18.59
2022-08-05T06:17:30.885Z,18.62
2022-08-05T06:23:16.922Z,18.52
2022-08-05T06:26:12.220Z,18.60
2022-08-05T06:28:32.918Z,18.70
2022-08-05T06:31:11.202Z,18.66
2022-08-05T06:34:09.028Z,18.77
2022-08-05T06:36:57.124Z,18.80
2022-08-05T06:39:27.874Z,18.88
2022-08-05T06:42:04.113Z,18.81
2022-08-05T06:44:37.833Z,18.86
2022-08-05T06:47:30.021Z,18.94
2022-08-05T06:50:00.119Z,18.97
2022-08-05T06:52:38.157Z,18.98
2022-08-05T06:55:14.287Z,19.00
2022-08-05T06:58:02.583Z,18.98
2022-08-05T07:01:07.267Z,19.08
2022-08-05T07:03:35.111Z,19.21
2022-08-05T07:06:05.955Z,19.34
2022-08-05T07:08:47.704Z,19.27
2022-08-05T07:11:25.620Z,19.38
2022-08-05T07:14:20.055Z,19.43
2022-08-05T07:17:59.180Z,19.53
2022-08-05T07:22:58.399Z,19.58
2022-08-05T07:25:56.397Z,19.51
2022-08-05T07:28:23.335Z,19.45
2022-08-05T07:30:52.893Z,19.59
2022-08-05T07:33:36.792Z,19.67
2022-08-05T07:36:21.610Z,19.66
2022-08-05T07:38:49.394Z,19.77
2022-08-05T07:42:14.609Z,19.67
2022-08-05T07:44:23.066Z,19.70
2022-08-05T07:46:50.992Z,19.70
2022-08-05T07:49:24.973Z,19.74
2022-08-05T07:52:00.046Z,19.72
2022-08-05T07:54:30.398Z,19.79
2022-08-05T07:57:14.657Z,19.79
2022-08-05T07:59:48.908Z,19.80
2022-08-05T08:02:17.850Z,19.69
2022-08-05T08:04:53.534Z,19.60
2022-08-05T08:07:22.396Z,19.70
2022-08-05T08:09:57.553Z,19.73
2022-08-05T08:12:36.993Z,19.70
2022-08-05T08:15:15.793Z,19.74
2022-08-05T08:17:52.727Z,19.76
2022-08-05T08:20:43.394Z,19.83
2022-08-05T08:24:00.421Z,19.72
2022-08-05T08:26:29.574Z,19.74
2022-08-05T08:28:59.836Z,19.69
2022-08-05T08:34:30.196Z,19.63
2022-08-05T08:37:06.637Z,19.67
2022-08-05T08:39:37.124Z,19.65
2022-08-05T08:42:10.757Z,19.56
2022-08-05T08:44:55.014Z,19.67
2022-08-05T08:48:05.785Z,19.69
2022-08-05T08:51:03.650Z,19.55
2022-08-05T08:54:14.923Z,19.59
2022-08-05T08:56:47.893Z,19.58
2022-08-05T08:59:20.771Z,19.53
2022-08-05T09:01:57.295Z,19.53
2022-08-05T09:06:07.694Z,19.32
2022-08-05T09:08:30.289Z,19.41
2022-08-05T09:10:59.313Z,19.48
2022-08-05T09:14:01.089Z,19.38
2022-08-05T09:16:23.082Z,19.36
2022-08-05T09:18:55.356Z,19.39
2022-08-05T09:22:22.143Z,19.42
2022-08-05T09:24:42.645Z,19.46
2022-08-05T09:28:04.703Z,19.39
2022-08-05T09:30:30.983Z,19.43
2022-08-05T09:33:02.385Z,19.31
2022-08-05T09:35:37.146Z,19.36
2022-08-05T09:38:12.611Z,19.34
2022-08-05T09:40:55.088Z,19.31
2022-08-05T09:43:41.725Z,19.27
2022-08-05T09:46:28.452Z,19.25
2022-08-05T09:51:49.637Z,19.25
2022-08-05T09:54:55.508Z,19.24
2022-08-05T09:57:39.561Z,19.28
2022-08-05T10:00:16.859Z,19.16
2022-08-05T10:02:50.482Z,19.20
2022-08-05T10:05:20.845Z,19.30
2022-08-05T10:08:36.877Z,19.25
2022-08-05T10:14:27.893Z,19.32
2022-08-05T10:17:37.354Z,19.43
2022-08-05T10:20:10.936Z,19.38
2022-08-05T10:22:42.883Z,19.39
2022-08-05T10:25:16.981Z,19.31
2022-08-05T10:28:16.819Z,19.36
2022-08-05T10:32:51.578Z,19.38
2022-08-05T10:33:36.007Z,19.30
2022-08-05T10:36:07.769Z,19.23
2022-08-05T10:38:44.967Z,19.25
2022-08-05T10:41:46.537Z,19.30
2022-08-05T10:44:19.126Z,19.24
2022-08-05T10:46:54.700Z,19.07
2022-08-05T10:49:27.524Z,19.12
2022-08-05T10:52:03.205Z,19.15
2022-08-05T10:54:56.410Z,19.27
2022-08-05T10:57:29.433Z,19.18
2022-08-05T11:00:29.873Z,19.01
2022-08-05T11:03:22.766Z,19.10
2022-08-05T11:06:15.326Z,19.05
2022-08-05T11:09:17.379Z,18.97
2022-08-05T11:11:54.383Z,18.98
2022-08-05T11:15:00.922Z,19.04
2022-08-05T11:17:59.782Z,18.98
2022-08-05T11:20:43.722Z,18.86
2022-08-05T11:24:03.875Z,18.94
2022-08-05T11:26:43.159Z,19.00
2022-08-05T11:29:34.695Z,18.87
2022-08-05T11:36:07.521Z,18.88
2022-08-05T11:39:06.256Z,18.91
2022-08-05T11:42:01.405Z,18.84
2022-08-05T11:45:03.421Z,18.86
2022-08-05T11:50:32.808Z,18.77
2022-08-05T11:53:06.316Z,18.79
2022-08-05T11:55:37.042Z,18.86
2022-08-05T11:58:09.203Z,18.81
2022-08-05T12:01:08.335Z,18.83
2022-08-05T12:03:56.149Z,18.80
2022-08-05T12:06:54.636Z,18.84
2022-08-05T12:09:53.033Z,18.84
2022-08-05T12:12:30.162Z,18.88
2022-08-05T12:18:09.979Z,18.81
2022-08-05T12:20:44.306Z,18.90
2022-08-05T12:23:13.439Z,18.84
2022-08-05T12:25:52.660Z,18.97
2022-08-05T12:31:46.046Z,18.98
2022-08-05T14:02:19.936Z,20.86
2022-08-05T14:05:29.498Z,21.04
2022-08-05T14:11:03.370Z,20.08
2022-08-05T14:14:09.098Z,20.93
2022-08-05T14:17:04.408Z,21.04
2022-08-05T14:19:55.404Z,21.20
2022-08-05T14:22:56.022Z,21.20
2022-08-05T14:25:27.795Z,21.30
2022-08-05T15:13:10.000Z,21.96
2022-08-05T15:15:55.584Z,21.77
2022-08-05T15:21:30.538Z,21.66
2022-08-05T15:23:59.419Z,21.63
2022-08-05T15:26:37.115Z,21.86
2022-08-05T15:29:05.581Z,21.83
2022-08-05T15:31:51.019Z,21.72
2022-08-05T15:34:32.216Z,21.62
2022-08-05T15:37:06.797Z,21.47
2022-08-05T15:41:03.072Z,21.61
2022-08-05T15:43:12.780Z,21.41
2022-08-05T15:46:00.705Z,21.12
2022-08-05T15:48:33.510Z,21.01
2022-08-05T15:51:05.965Z,20.53
2022-08-05T15:53:38.329Z,20.41
2022-08-05T15:56:25.264Z,20.16
2022-08-05T15:58:59.048Z,20.36
2022-08-05T16:01:29.342Z,20.27
2022-08-05T16:04:03.201Z,20.08
2022-08-05T16:06:30.909Z,20.31
2022-08-05T16:08:58.928Z,20.52
2022-08-05T16:11:42.339Z,20.34
2022-08-05T16:14:17.190Z,19.96
2022-08-05T16:17:10.334Z,20.20
2022-08-05T16:20:03.341Z,20.21
2022-08-05T16:22:34.675Z,20.08
2022-08-05T16:25:33.834Z,20.20
2022-08-05T16:28:05.625Z,20.01
2022-08-05T16:30:36.093Z,20.03
2022-08-05T16:33:05.014Z,20.16
2022-08-05T16:35:43.002Z,20.16
2022-08-05T16:38:21.873Z,19.97
2022-08-05T16:40:59.872Z,20.08
2022-08-05T16:43:34.491Z,19.94
2022-08-05T16:46:23.846Z,20.16
2022-08-05T16:51:51.092Z,19.83
2022-08-05T16:54:48.261Z,19.96
2022-08-05T16:57:26.765Z,19.83
2022-08-05T17:00:14.242Z,19.63
2022-08-05T17:03:43.534Z,19.55
2022-08-05T17:06:11.158Z,19.48
2022-08-05T17:08:52.676Z,19.39
2022-08-05T17:11:27.700Z,19.38
2022-08-05T17:16:47.024Z,19.45
2022-08-05T17:19:25.967Z,19.20
2022-08-05T17:21:52.914Z,19.11
2022-08-05T17:24:35.183Z,18.91
2022-08-05T17:27:10.901Z,18.76
2022-08-05T17:29:40.819Z,18.79
2022-08-05T17:32:16.841Z,18.63
2022-08-05T17:35:20.625Z,18.83
2022-08-05T17:37:49.364Z,18.90
2022-08-05T17:40:22.888Z,18.80
2022-08-05T17:42:52.803Z,18.73
2022-08-05T17:45:23.054Z,18.83
2022-08-05T17:47:54.857Z,18.76
2022-08-05T17:50:28.375Z,18.79
2022-08-05T17:52:59.104Z,18.24
2022-08-05T17:55:37.294Z,18.38
2022-08-05T17:58:12.218Z,18.45
2022-08-05T18:00:47.781Z,18.52
2022-08-05T18:06:31.163Z,18.14
2022-08-05T18:09:06.085Z,18.22
2022-08-05T18:11:42.873Z,18.20
2022-08-05T18:14:13.518Z,18.00
2022-08-05T18:19:41.036Z,17.83
2022-08-05T18:22:22.902Z,17.87
2022-08-05T18:24:50.871Z,17.89
2022-08-05T18:27:19.194Z,17.63
2022-08-05T18:29:53.693Z,17.59
2022-08-05T18:32:28.269Z,17.42
2022-08-05T18:34:57.940Z,17.36
2022-08-05T18:37:34.683Z,17.40
2022-08-05T18:43:38.355Z,17.57
2022-08-05T18:46:10.974Z,17.34
2022-08-05T18:48:44.988Z,17.40
2022-08-05T18:52:05.106Z,17.11
2022-08-05T18:54:20.865Z,17.22
2022-08-05T18:56:54.020Z,17.21
2022-08-05T18:59:43.651Z,16.96
2022-08-05T19:02:26.592Z,16.89
2022-08-05T19:05:02.982Z,16.83
2022-08-05T19:07:50.339Z,16.86
2022-08-05T19:10:28.079Z,16.94
2022-08-05T19:13:21.629Z,16.86
2022-08-05T19:15:59.712Z,16.89
2022-08-05T19:18:57.184Z,16.76
2022-08-05T19:21:27.678Z,16.72
2022-08-05T19:24:05.142Z,16.60
2022-08-05T19:27:06.022Z,16.63
2022-08-05T19:29:36.153Z,16.56
2022-08-05T19:32:08.576Z,16.46
2022-08-05T19:34:39.002Z,16.43
2022-08-05T19:37:07.014Z,16.42
2022-08-05T19:39:45.112Z,16.34
2022-08-05T19:42:35.383Z,16.24
2022-08-05T19:45:05.979Z,16.21
2022-08-05T19:47:34.060Z,16.20
2022-08-05T19:50:07.865Z,16.13
2022-08-05T19:52:38.962Z,16.03
2022-08-05T19:56:15.165Z,16.05
2022-08-05T19:58:14.464Z,16.00
2022-08-05T20:00:54.256Z,15.98
2022-08-05T20:03:22.981Z,15.93
2022-08-05T20:05:56.690Z,15.86
2022-08-05T20:08:52.344Z,15.77
2022-08-05T20:11:25.181Z,15.74
2022-08-05T20:14:26.796Z,15.71
2022-08-05T20:16:55.838Z,15.59
2022-08-05T20:19:25.933Z,15.58
2022-08-05T20:22:03.095Z,15.52
2022-08-05T20:27:27.497Z,15.42
2022-08-05T20:30:15.316Z,15.39
2022-08-05T20:32:46.955Z,15.41
2022-08-05T20:35:14.945Z,15.36
2022-08-05T20:38:07.809Z,15.27
2022-08-05T20:40:33.025Z,15.25
2022-08-05T20:43:08.754Z,15.18
2022-08-05T20:45:55.914Z,15.16
2022-08-05T20:48:24.896Z,15.07
2022-08-05T20:50:58.019Z,15.10
2022-08-05T20:53:36.450Z,15.03
2022-08-05T20:56:42.161Z,15.04
2022-08-05T20:59:18.968Z,14.95
2022-08-05T21:02:19.304Z,14.88
2022-08-05T21:07:51.991Z,14.80
2022-08-05T21:10:21.554Z,14.81
2022-08-05T21:13:08.952Z,14.70
2022-08-05T21:15:44.387Z,14.76
2022-08-05T21:21:05.296Z,14.67
2022-08-05T21:23:37.061Z,14.67
2022-08-05T21:26:31.438Z,14.69
2022-08-05T21:29:26.654Z,14.60
2022-08-05T21:32:02.503Z,14.62
2022-08-05T21:34:31.713Z,14.55
2022-08-05T21:37:01.016Z,14.62
2022-08-05T21:39:29.842Z,14.57
2022-08-05T21:42:01.457Z,14.51
2022-08-05T21:44:32.074Z,14.55
2022-08-05T21:46:59.903Z,14.48
2022-08-05T21:49:58.707Z,14.43
2022-08-05T21:52:28.344Z,14.49
2022-08-05T21:55:06.397Z,14.42
2022-08-05T21:57:35.966Z,14.46
2022-08-05T22:00:11.186Z,14.38
2022-08-05T22:03:09.923Z,14.40
2022-08-05T22:05:48.836Z,14.36
2022-08-05T22:08:22.066Z,14.39
2022-08-05T22:10:57.161Z,14.39
2022-08-05T22:14:05.897Z,14.42
2022-08-05T22:16:41.156Z,14.36
2022-08-05T22:19:00.981Z,14.42
2022-08-05T22:21:29.114Z,14.35
2022-08-05T22:28:11.166Z,14.40
2022-08-05T22:30:16.110Z,14.40
2022-08-05T22:32:49.005Z,14.36
2022-08-05T22:35:21.989Z,14.30
2022-08-05T22:37:58.779Z,14.39
2022-08-05T22:43:37.244Z,14.29
2022-08-05T22:46:13.574Z,14.36
2022-08-05T22:48:50.978Z,14.36
2022-08-05T22:52:02.539Z,14.38
2022-08-05T23:00:23.022Z,14.30
2022-08-05T23:02:53.224Z,14.22
2022-08-05T23:05:22.234Z,14.30
2022-08-05T23:07:52.188Z,14.15
2022-08-05T23:10:24.856Z,14.17
2022-08-05T23:12:57.230Z,14.19
2022-08-05T23:15:30.017Z,14.14
2022-08-05T23:18:06.045Z,14.12
2022-08-05T23:20:43.221Z,14.14
2022-08-05T23:23:10.832Z,14.12
2022-08-05T23:25:52.253Z,14.12
2022-08-05T23:28:30.970Z,14.07
2022-08-05T23:31:07.019Z,14.02
2022-08-05T23:34:04.733Z,14.11
2022-08-05T23:36:39.710Z,14.10
2022-08-05T23:39:32.074Z,13.98
2022-08-05T23:42:08.614Z,13.97
2022-08-05T23:44:46.824Z,14.00
2022-08-05T23:47:26.867Z,13.94
2022-08-05T23:49:55.750Z,13.98
2022-08-05T23:52:32.262Z,13.91
2022-08-05T23:55:10.100Z,13.93
2022-08-05T23:57:38.870Z,13.90
